createdAt,value
2022-09-28T00:01:18.454Z,9.08
2022-09-28T00:03:45.975Z,9.06
2022-09-28T00:06:14.378Z,9.08
2022-09-28T00:08:42.242Z,9.08
2022-09-28T00:11:13.654Z,9.07
2022-09-28T00:13:40.528Z,9.10
2022-09-28T00:16:10.535Z,9.10
2022-09-28T00:18:37.341Z,9.08
2022-09-28T00:21:09.304Z,9.12
2022-09-28T00:23:56.398Z,9.12
2022-09-28T00:26:23.537Z,9.08
2022-09-28T00:28:59.059Z,9.06
2022-09-28T00:31:32.546Z,9.06
2022-09-28T00:34:00.403Z,9.02
2022-09-28T00:36:28.588Z,9.03
2022-09-28T00:38:58.781Z,9.01
2022-09-28T00:41:26.847Z,9.04
2022-09-28T00:43:54.606Z,9.04
2022-09-28T00:46:34.161Z,9.01
2022-09-28T00:49:04.102Z,9.02
2022-09-28T00:51:31.860Z,9.03
2022-09-28T00:53:59.517Z,9.06
2022-09-28T00:56:28.384Z,9.06
2022-09-28T00:58:54.969Z,9.06
2022-09-28T01:01:21.697Z,9.05
2022-09-28T01:03:48.719Z,9.07
2022-09-28T01:06:18.678Z,9.10
2022-09-28T01:08:45.825Z,9.11
2022-09-28T01:11:13.244Z,9.12
2022-09-28T01:13:40.269Z,9.11
2022-09-28T01:16:28.988Z,9.12
2022-09-28T01:19:08.700Z,9.10
2022-09-28T01:21:50.304Z,9.11
2022-09-28T01:24:40.300Z,9.15
2022-09-28T01:27:28.500Z,9.15
2022-09-28T01:30:05.776Z,9.16
2022-09-28T01:32:35.078Z,9.21
2022-09-28T01:35:08.810Z,9.20
2022-09-28T01:37:43.812Z,9.21
2022-09-28T01:40:12.051Z,9.23
2022-09-28T01:42:39.894Z,9.21
2022-09-28T01:45:12.321Z,9.23
2022-09-28T01:47:40.534Z,9.23
2022-09-28T01:50:14.692Z,9.25
2022-09-28T01:52:50.044Z,9.24
2022-09-28T01:55:29.014Z,9.28
2022-09-28T01:58:00.690Z,9.30
2022-09-28T02:00:27.969Z,9.35
2022-09-28T02:02:59.415Z,9.39
2022-09-28T02:05:39.343Z,9.42
2022-09-28T02:08:09.859Z,9.42
2022-09-28T02:11:15.335Z,9.41
2022-09-28T02:13:51.364Z,9.40
2022-09-28T02:16:40.752Z,9.40
2022-09-28T02:19:11.214Z,9.38
2022-09-28T02:21:38.139Z,9.39
2022-09-28T02:24:11.523Z,9.39
2022-09-28T02:26:41.794Z,9.39
2022-09-28T02:29:08.339Z,9.41
2022-09-28T02:31:35.571Z,9.40
2022-09-28T02:34:02.458Z,9.40
2022-09-28T02:36:29.853Z,9.43
2022-09-28T02:38:58.214Z,9.42
2022-09-28T02:41:33.766Z,9.42
2022-09-28T02:44:26.514Z,9.42
2022-09-28T02:47:00.251Z,9.42
2022-09-28T02:49:46.915Z,9.43
2022-09-28T02:52:38.611Z,9.44
2022-09-28T02:55:10.917Z,9.48
2022-09-28T02:57:48.352Z,9.45
2022-09-28T03:00:18.776Z,9.45
2022-09-28T03:03:08.057Z,9.44
2022-09-28T03:05:47.024Z,9.45
2022-09-28T03:08:27.800Z,9.44
2022-09-28T03:10:59.168Z,9.42
2022-09-28T03:13:26.813Z,9.39
2022-09-28T03:16:27.383Z,9.40
2022-09-28T03:18:54.224Z,9.39
2022-09-28T03:21:20.735Z,9.40
2022-09-28T03:23:47.776Z,9.40
2022-09-28T03:26:16.715Z,9.39
2022-09-28T03:28:44.211Z,9.39
2022-09-28T03:31:16.095Z,9.33
2022-09-28T03:33:42.524Z,9.35
2022-09-28T03:36:09.627Z,9.37
2022-09-28T03:38:36.926Z,9.35
2022-09-28T03:41:03.452Z,9.37
2022-09-28T03:43:34.599Z,9.37
2022-09-28T03:46:02.602Z,9.37
2022-09-28T03:48:34.513Z,9.40
2022-09-28T03:51:03.297Z,9.43
2022-09-28T03:53:30.060Z,9.45
2022-09-28T03:56:05.425Z,9.47
2022-09-28T03:58:32.833Z,9.46
2022-09-28T04:01:04.357Z,9.43
2022-09-28T04:03:31.249Z,9.42
2022-09-28T04:05:58.081Z,9.38
2022-09-28T04:08:24.648Z,9.36
2022-09-28T04:10:51.072Z,9.35
2022-09-28T04:13:18.511Z,9.36
2022-09-28T04:15:52.773Z,9.37
2022-09-28T04:18:20.467Z,9.37
2022-09-28T04:21:15.237Z,9.38
2022-09-28T04:23:48.760Z,9.36
2022-09-28T04:26:26.256Z,9.34
2022-09-28T04:29:11.447Z,9.32
2022-09-28T04:31:42.335Z,9.34
2022-09-28T04:34:09.019Z,9.38
2022-09-28T04:36:37.059Z,9.45
2022-09-28T04:39:03.857Z,9.46
2022-09-28T04:41:31.536Z,9.48
2022-09-28T04:43:57.944Z,9.54
2022-09-28T04:46:25.988Z,9.61
2022-09-28T04:49:04.232Z,9.62
2022-09-28T06:49:17.300Z,8.45
2022-09-28T06:52:04.603Z,8.56
2022-09-28T06:54:54.188Z,8.67
2022-09-28T06:57:22.914Z,8.75
2022-09-28T06:59:49.436Z,8.84
2022-09-28T07:02:15.980Z,8.90
2022-09-28T07:04:59.452Z,8.94
2022-09-28T07:07:40.472Z,8.96
2022-09-28T07:10:45.176Z,8.99
2022-09-28T07:13:48.073Z,9.09
2022-09-28T07:16:12.431Z,9.17
2022-09-28T07:18:38.907Z,9.18
2022-09-28T07:21:07.788Z,9.28
2022-09-28T07:23:46.174Z,9.32
2022-09-28T07:26:24.587Z,9.37
2022-09-28T07:28:57.156Z,9.41
2022-09-28T07:31:33.674Z,9.40
2022-09-28T07:34:19.085Z,9.39
2022-09-28T07:36:59.530Z,9.39
2022-09-28T07:39:25.983Z,9.43
2022-09-28T07:41:54.386Z,9.51
2022-09-28T07:44:23.071Z,9.54
2022-09-28T07:46:53.207Z,9.58
2022-09-28T07:49:30.545Z,9.58
2022-09-28T07:52:13.717Z,9.59
2022-09-28T07:55:04.600Z,9.60
2022-09-28T07:58:01.703Z,9.59
2022-09-28T08:01:06.764Z,9.57
2022-09-28T08:03:35.145Z,9.59
2022-09-28T08:06:04.840Z,9.65
2022-09-28T08:08:33.610Z,9.70
2022-09-28T08:11:00.069Z,9.72
2022-09-28T08:14:04.826Z,9.84
2022-09-28T08:16:52.032Z,9.93
2022-09-28T08:19:52.269Z,9.95
2022-09-28T08:22:19.439Z,10.02
2022-09-28T08:24:49.270Z,10.04
2022-09-28T08:27:16.884Z,10.03
2022-09-28T08:29:43.492Z,9.99
2022-09-28T08:32:29.832Z,9.95
2022-09-28T08:35:26.151Z,9.95
2022-09-28T08:38:10.795Z,9.96
2022-09-28T08:41:34.752Z,9.94
2022-09-28T08:44:24.467Z,9.90
2022-09-28T08:47:35.688Z,9.88
2022-09-28T08:50:24.141Z,9.90
2022-09-28T08:53:06.036Z,9.96
2022-09-28T08:55:50.355Z,10.01
2022-09-28T08:58:38.093Z,10.05
2022-09-28T09:01:07.760Z,10.11
2022-09-28T09:03:39.276Z,10.18
2022-09-28T09:06:44.459Z,10.24
2022-09-28T09:09:32.153Z,10.33
2022-09-28T09:12:08.448Z,10.27
2022-09-28T09:14:52.020Z,10.31
2022-09-28T09:17:52.312Z,10.38
2022-09-28T09:20:45.372Z,10.41
2022-09-28T09:23:40.809Z,10.39
2022-09-28T09:26:25.281Z,10.47
2022-09-28T09:29:11.558Z,10.59
2022-09-28T09:32:08.182Z,10.69
2022-09-28T09:35:07.580Z,10.71
2022-09-28T09:37:42.654Z,10.72
2022-09-28T09:41:20.588Z,10.79
2022-09-28T09:44:30.836Z,10.86
2022-09-28T09:47:46.735Z,10.93
2022-09-28T09:50:50.604Z,10.91
2022-09-28T09:53:27.187Z,10.89
2022-09-28T09:55:57.251Z,10.90
2022-09-28T09:58:42.413Z,10.91
2022-09-28T10:01:32.663Z,10.92
2022-09-28T10:04:24.808Z,10.93
2022-09-28T10:06:58.538Z,10.97
2022-09-28T10:09:28.683Z,11.03
2022-09-28T10:12:04.760Z,11.07
2022-09-28T10:14:31.509Z,11.08
2022-09-28T10:17:03.651Z,11.11
2022-09-28T10:19:58.787Z,11.17
2022-09-28T10:22:43.857Z,11.21
2022-09-28T10:25:15.282Z,11.25
2022-09-28T10:27:45.976Z,11.34
2022-09-28T10:30:17.614Z,11.40
2022-09-28T10:32:47.053Z,11.48
2022-09-28T10:35:21.972Z,11.60
2022-09-28T10:38:03.116Z,11.68
2022-09-28T10:41:01.059Z,11.74
2022-09-28T10:44:08.770Z,11.85
2022-09-28T10:46:42.100Z,11.97
2022-09-28T10:49:17.640Z,12.05
2022-09-28T10:51:58.732Z,11.99
2022-09-28T10:54:34.064Z,11.91
2022-09-28T10:57:00.756Z,11.90
2022-09-28T10:59:41.497Z,11.84
2022-09-28T11:02:35.720Z,11.75
2022-09-28T11:05:21.975Z,11.69
2022-09-28T11:07:49.732Z,11.73
2022-09-28T11:10:26.236Z,11.77
2022-09-28T11:12:57.202Z,11.83
2022-09-28T11:15:27.013Z,11.92
2022-09-28T11:17:53.530Z,12.00
2022-09-28T11:20:27.473Z,12.03
2022-09-28T11:22:56.452Z,12.14
2022-09-28T11:25:29.005Z,12.19
2022-09-28T11:28:01.456Z,12.20
2022-09-28T11:30:32.696Z,12.21
2022-09-28T11:33:29.608Z,12.30
2022-09-28T11:36:48.189Z,12.33
2022-09-28T11:39:39.427Z,12.31
2022-09-28T11:42:16.579Z,12.37
2022-09-28T11:44:46.347Z,12.32
2022-09-28T11:47:44.337Z,12.34
2022-09-28T11:50:35.683Z,12.34
2022-09-28T11:53:18.574Z,12.43
2022-09-28T11:55:59.848Z,12.53
2022-09-28T11:58:32.856Z,12.58
2022-09-28T12:01:18.887Z,12.65
2022-09-28T12:04:09.569Z,12.65
2022-09-28T12:06:45.193Z,12.68
2022-09-28T12:09:25.460Z,12.77
2022-09-28T12:12:03.473Z,12.74
2022-09-28T12:14:45.558Z,12.78
2022-09-28T12:17:25.726Z,12.81
2022-09-28T12:19:59.513Z,12.82
2022-09-28T12:22:32.790Z,12.85
2022-09-28T12:24:59.293Z,12.90
2022-09-28T12:27:42.877Z,12.91
2022-09-28T12:30:19.227Z,12.93
2022-09-28T12:32:53.340Z,12.91
2022-09-28T12:35:31.522Z,12.87
2022-09-28T12:38:10.066Z,12.94
2022-09-28T12:40:47.458Z,12.97
2022-09-28T12:43:31.027Z,12.99
2022-09-28T12:46:12.083Z,13.01
2022-09-28T12:49:15.880Z,13.11
2022-09-28T12:51:49.598Z,13.19
2022-09-28T12:54:34.301Z,13.06
2022-09-28T12:57:34.431Z,12.95
2022-09-28T13:00:10.660Z,12.94
2022-09-28T13:02:50.742Z,12.92
2022-09-28T13:05:17.044Z,12.92
2022-09-28T13:07:55.672Z,12.88
2022-09-28T13:10:33.758Z,12.91
2022-09-28T13:13:15.504Z,12.97
2022-09-28T13:15:50.934Z,13.01
2022-09-28T13:18:27.108Z,13.09
2022-09-28T13:21:17.214Z,13.11
2022-09-28T13:23:48.531Z,13.17
2022-09-28T13:26:36.328Z,13.18
2022-09-28T13:29:14.502Z,13.19
2022-09-28T13:31:47.419Z,13.21
2022-09-28T13:34:20.490Z,13.17
2022-09-28T13:37:21.739Z,13.16
2022-09-28T13:39:53.042Z,13.13
2022-09-28T13:42:34.971Z,13.12
2022-09-28T13:45:10.377Z,13.13
2022-09-28T13:48:01.014Z,13.14
2022-09-28T13:51:01.356Z,13.14
2022-09-28T13:53:51.266Z,13.14
2022-09-28T13:56:31.500Z,13.11
2022-09-28T13:59:10.910Z,13.09
2022-09-28T14:02:06.898Z,13.07
2022-09-28T14:04:57.726Z,13.10
2022-09-28T14:07:25.105Z,13.15
2022-09-28T14:10:16.948Z,13.19
2022-09-28T14:12:48.382Z,13.28
2022-09-28T14:15:35.000Z,13.35
2022-09-28T14:18:16.548Z,13.35
2022-09-28T14:20:50.707Z,13.37
2022-09-28T14:23:40.087Z,13.41
2022-09-28T14:26:29.852Z,13.42
2022-09-28T14:29:17.649Z,13.40
2022-09-28T14:31:45.196Z,13.42
2022-09-28T14:34:44.988Z,13.44
2022-09-28T14:37:39.351Z,13.47
2022-09-28T14:40:39.991Z,13.47
2022-09-28T14:43:24.322Z,13.46
2022-09-28T14:45:54.387Z,13.43
2022-09-28T14:48:22.405Z,13.47
2022-09-28T14:50:49.884Z,13.43
2022-09-28T14:53:21.872Z,13.45
2022-09-28T14:55:51.804Z,13.44
2022-09-28T14:58:22.327Z,13.40
2022-09-28T15:00:51.492Z,13.39
2022-09-28T15:03:18.197Z,13.44
2022-09-28T15:05:49.564Z,13.49
2022-09-28T15:08:20.170Z,13.50
2022-09-28T15:10:48.409Z,13.46
2022-09-28T15:13:20.768Z,13.48
2022-09-28T15:15:50.424Z,13.57
2022-09-28T15:18:44.788Z,13.66
2022-09-28T15:21:12.411Z,13.72
2022-09-28T15:23:41.284Z,13.72
2022-09-28T15:26:38.708Z,13.64
2022-09-28T15:29:16.787Z,13.53
2022-09-28T15:31:43.270Z,13.49
2022-09-28T15:34:50.837Z,13.51
2022-09-28T15:37:40.656Z,13.53
2022-09-28T15:40:13.919Z,13.57
2022-09-28T15:42:40.366Z,13.57
2022-09-28T15:45:26.565Z,13.55
2022-09-28T15:47:58.245Z,13.57
2022-09-28T15:50:28.116Z,13.61
2022-09-28T15:53:02.975Z,13.57
2022-09-28T15:55:34.913Z,13.54
2022-09-28T15:58:17.666Z,13.47
2022-09-28T16:00:46.331Z,13.38
2022-09-28T16:03:15.764Z,13.33
2022-09-28T16:05:46.688Z,13.25
2022-09-28T16:08:21.155Z,13.19
2022-09-28T16:11:15.159Z,13.14
2022-09-28T16:14:02.440Z,13.09
2022-09-28T16:16:58.151Z,13.08
2022-09-28T16:19:37.746Z,13.04
2022-09-28T16:22:06.303Z,13.01
2022-09-28T16:24:37.400Z,12.96
2022-09-28T16:27:07.013Z,12.91
2022-09-28T16:29:41.304Z,12.86
2022-09-28T16:32:25.816Z,12.83
2022-09-28T16:35:07.228Z,12.76
2022-09-28T16:37:33.771Z,12.75
2022-09-28T16:40:00.269Z,12.69
2022-09-28T16:42:27.328Z,12.65
2022-09-28T16:44:56.341Z,12.64
2022-09-28T16:47:23.328Z,12.60
2022-09-28T16:49:49.763Z,12.57
2022-09-28T16:52:38.756Z,12.54
2022-09-28T16:58:04.744Z,12.45
2022-09-28T17:00:32.362Z,12.42
2022-09-28T17:02:59.091Z,12.37
2022-09-28T17:05:25.541Z,12.32
2022-09-28T17:08:03.461Z,12.28
2022-09-28T17:10:56.108Z,12.24
2022-09-28T17:13:35.906Z,12.21
2022-09-28T17:16:10.254Z,12.17
2022-09-28T17:18:38.972Z,12.13
2022-09-28T17:21:15.555Z,12.08
2022-09-28T17:23:43.459Z,12.03
2022-09-28T17:26:31.374Z,11.96
2022-09-28T17:28:59.245Z,11.92
2022-09-28T17:31:26.131Z,11.85
2022-09-28T17:33:52.649Z,11.81
2022-09-28T17:36:19.165Z,11.78
2022-09-28T17:38:46.714Z,11.72
2022-09-28T17:41:20.009Z,11.66
2022-09-28T17:43:46.821Z,11.58
2022-09-28T17:46:31.350Z,11.49
2022-09-28T17:48:59.759Z,11.41
2022-09-28T17:51:30.854Z,11.37
2022-09-28T17:53:57.937Z,11.35
2022-09-28T17:56:29.701Z,11.32
2022-09-28T17:59:01.016Z,11.28
2022-09-28T18:01:33.604Z,11.21
2022-09-28T18:04:01.667Z,11.17
2022-09-28T18:06:28.153Z,11.12
2022-09-28T18:08:54.738Z,11.06
2022-09-28T18:11:21.383Z,11.02
2022-09-28T18:13:47.778Z,10.94
2022-09-28T18:16:14.636Z,10.91
2022-09-28T18:18:41.187Z,10.87
2022-09-28T18:21:07.698Z,10.84
2022-09-28T18:23:38.252Z,10.81
2022-09-28T18:26:15.134Z,10.78
2022-09-28T18:28:41.624Z,10.74
2022-09-28T18:31:13.488Z,10.68
2022-09-28T18:33:40.628Z,10.63
2022-09-28T18:36:07.905Z,10.56
2022-09-28T18:38:38.032Z,10.53
2022-09-28T18:41:15.383Z,10.52
2022-09-28T18:43:51.280Z,10.46
2022-09-28T18:46:18.226Z,10.47
2022-09-28T18:48:45.092Z,10.44
2022-09-28T18:51:12.464Z,10.43
2022-09-28T18:53:39.911Z,10.41
2022-09-28T18:56:11.203Z,10.40
2022-09-28T18:58:38.848Z,10.39
2022-09-28T19:01:29.396Z,10.38
2022-09-28T19:04:01.740Z,10.35
2022-09-28T19:06:28.732Z,10.32
2022-09-28T19:08:56.121Z,10.32
2022-09-28T19:11:23.609Z,10.29
2022-09-28T19:13:50.296Z,10.27
2022-09-28T19:16:20.527Z,10.24
2022-09-28T19:18:47.594Z,10.26
2022-09-28T19:21:15.062Z,10.25
2022-09-28T19:23:48.087Z,10.28
2022-09-28T19:26:21.166Z,10.28
2022-09-28T19:28:50.988Z,10.27
2022-09-28T19:31:17.675Z,10.26
2022-09-28T19:33:46.556Z,10.27
2022-09-28T19:36:16.515Z,10.29
2022-09-28T19:38:42.937Z,10.25
2022-09-28T19:41:39.019Z,10.22
2022-09-28T19:44:06.404Z,10.20
2022-09-28T19:46:34.195Z,10.21
2022-09-28T19:49:06.050Z,10.16
2022-09-28T19:51:32.903Z,10.14
2022-09-28T19:54:01.540Z,10.11
2022-09-28T19:56:31.591Z,10.07
2022-09-28T19:58:58.973Z,10.08
2022-09-28T20:01:25.677Z,10.08
2022-09-28T20:03:54.248Z,10.01
2022-09-28T20:06:20.641Z,9.97
2022-09-28T20:08:47.244Z,10.01
2022-09-28T20:11:13.632Z,9.96
2022-09-28T20:13:40.020Z,9.94
2022-09-28T20:16:08.385Z,9.95
2022-09-28T20:18:36.580Z,9.94
2022-09-28T20:21:07.900Z,9.90
2022-09-28T20:23:36.068Z,9.91
2022-09-28T20:26:04.541Z,9.93
2022-09-28T20:28:31.555Z,9.91
2022-09-28T20:31:05.117Z,9.95
2022-09-28T20:33:32.977Z,9.98
2022-09-28T20:36:10.423Z,9.98
2022-09-28T20:38:40.372Z,10.00
2022-09-28T20:41:08.395Z,9.98
2022-09-28T20:43:35.129Z,9.97
2022-09-28T20:46:02.534Z,9.99
2022-09-28T20:48:29.502Z,9.98
2022-09-28T20:51:03.480Z,10.01
2022-09-28T20:53:33.169Z,10.03
2022-09-28T20:56:01.071Z,10.03
2022-09-28T20:58:27.853Z,10.04
2022-09-28T21:01:17.227Z,10.03
2022-09-28T21:03:49.212Z,10.02
2022-09-28T21:06:17.296Z,9.99
2022-09-28T21:08:44.426Z,9.97
2022-09-28T21:11:12.368Z,10.02
2022-09-28T21:13:41.423Z,10.04
2022-09-28T21:16:08.425Z,10.04
2022-09-28T21:18:38.808Z,10.04
2022-09-28T21:21:07.279Z,10.02
2022-09-28T21:23:34.340Z,10.03
2022-09-28T21:26:05.793Z,10.03
2022-09-28T21:28:32.904Z,10.05
2022-09-28T21:30:59.675Z,10.07
2022-09-28T21:33:26.148Z,10.11
2022-09-28T21:35:52.586Z,10.16
2022-09-28T21:38:19.052Z,10.20
2022-09-28T21:40:45.516Z,10.22
2022-09-28T21:43:11.999Z,10.23
2022-09-28T21:45:39.460Z,10.24
2022-09-28T21:48:05.862Z,10.25
2022-09-28T21:50:32.509Z,10.29
2022-09-28T21:52:59.337Z,10.32
2022-09-28T21:55:25.723Z,10.35
2022-09-28T21:57:52.150Z,10.32
2022-09-28T22:00:23.040Z,10.32
2022-09-28T22:02:49.980Z,10.31
2022-09-28T22:05:16.827Z,10.29
2022-09-28T22:07:43.336Z,10.29
2022-09-28T22:10:13.952Z,10.26
2022-09-28T22:12:40.571Z,10.24
2022-09-28T22:15:07.576Z,10.23
2022-09-28T22:17:34.063Z,10.23
2022-09-28T22:20:00.625Z,10.23
2022-09-28T22:22:29.204Z,10.25
2022-09-28T22:24:56.093Z,10.28
2022-09-28T22:27:22.529Z,10.33
2022-09-28T22:29:49.089Z,10.33
2022-09-28T22:32:15.515Z,10.31
2022-09-28T22:34:41.896Z,10.30
2022-09-28T22:37:08.307Z,10.25
2022-09-28T22:39:37.705Z,10.28
2022-09-28T22:42:04.561Z,10.28
2022-09-28T22:44:31.007Z,10.26
2022-09-28T22:46:57.960Z,10.23
2022-09-28T22:49:24.419Z,10.16
2022-09-28T22:51:50.808Z,10.11
2022-09-28T22:54:17.390Z,10.08
2022-09-28T22:56:44.056Z,10.05
2022-09-28T22:59:11.523Z,10.02
2022-09-28T23:01:38.422Z,9.99
2022-09-28T23:04:05.101Z,9.98
2022-09-28T23:06:32.958Z,9.95
2022-09-28T23:09:00.112Z,9.94
2022-09-28T23:11:27.439Z,9.89
2022-09-28T23:13:56.002Z,9.84
2022-09-28T23:16:24.696Z,9.80
2022-09-28T23:18:52.338Z,9.76
2022-09-28T23:21:20.561Z,9.71
2022-09-28T23:23:52.259Z,9.70
2022-09-28T23:26:26.919Z,9.67
2022-09-28T23:28:54.186Z,9.67
2022-09-28T23:31:23.300Z,9.60
2022-09-28T23:33:50.264Z,9.55
2022-09-28T23:36:17.408Z,9.56
2022-09-28T23:38:44.060Z,9.53
2022-09-28T23:41:10.724Z,9.49
2022-09-28T23:43:37.284Z,9.45
2022-09-28T23:46:04.898Z,9.41
2022-09-28T23:48:31.456Z,9.39
2022-09-28T23:50:57.982Z,9.38
2022-09-28T23:53:24.661Z,9.35
2022-09-28T23:55:51.120Z,9.34
2022-09-28T23:58:17.537Z,9.30
